Flight Track Log - Related Links

Times and Time Zones

All times are in EDT time to prevent confusion due to time zone crossing. See the SWA3700 flight status page for this flight to view local times or setup timezone preferences in your user account.

Time Position Orientation Groundspeed Altitude Reporting Facility
EDT Latitude Longitude Course Direction KTS MPH feet Rate Location/Type
Mon 09:49:41 AM 37.3808 -121.9494 141° Southeast 149 171 1,400  Level Oakland Center
Mon 09:50:41 AM 37.4289 -121.9817 332° Northwest 226 260 3,900 1,785 Climbing Oakland Center
Mon 09:51:42 AM 37.4317 -121.9206 87° East 209 241 5,000 934 Climbing Oakland Center
Mon 09:52:43 AM 37.3914 -121.8594 130° Southeast 229 264 5,800 1,820 Climbing Oakland Center
Mon 09:53:44 AM 37.3422 -121.8044 138° Southeast 238 274 8,700 2,902 Climbing Oakland Center
Mon 09:54:45 AM 37.2803 -121.7342 138° Southeast 294 338 11,700 3,273 Climbing Oakland Center
Mon 09:55:00 AM 37.1062 -121.1777 141° Southeast  Level Estimated
Mon 09:55:45 AM 37.2100 -121.6542 138° Southeast 334 384 15,300  Level Oakland Center
Mon 09:56:46 AM 37.1356 -121.5686 137° Southeast 357 411 18,600 3,148 Climbing Oakland Center
Mon 09:57:47 AM 37.0519 -121.4842 141° Southeast 376 433 21,700 2,852 Climbing Oakland Center
Mon 09:58:48 AM 36.9725 -121.3914 137° Southeast 388 447 24,400 2,951 Climbing Oakland Center
Mon 09:59:49 AM 36.8689 -121.2814 140° Southeast 405 466 27,700 2,926 Climbing Oakland Center
Mon 10:00:49 AM 36.7967 -121.2014 138° Southeast 405 466 30,300 1,835 Climbing Oakland Center
Mon 10:01:50 AM 36.7175 -121.1033 135° Southeast 403 464 31,400 1,230 Climbing Oakland Center
Mon 10:02:51 AM 36.6383 -120.9897 131° Southeast 430 495 32,800 1,869 Climbing Oakland Center
Mon 10:03:52 AM 36.5419 -120.8522 131° Southeast 438 504 35,200 2,016 Climbing Oakland Center
Mon 10:04:53 AM 36.4625 -120.7417 132° Southeast 433 498 36,900 885 Climbing Oakland Center
Mon 10:05:54 AM 36.3831 -120.6317 132° Southeast 428 493 37,000 50 Climbing Oakland Center
Mon 10:06:54 AM 36.3036 -120.5244 133° Southeast 423 487 37,000  Level Oakland Center
Mon 10:07:55 AM 36.2258 -120.4133 131° Southeast 425 489 37,000  Level Oakland Center
Mon 10:08:56 AM 36.1467 -120.3056 132° Southeast 424 488 37,000  Level Oakland Center
Mon 10:09:57 AM 36.0667 -120.1978 133° Southeast 424 488 37,000  Level Oakland Center
Mon 10:10:58 AM 35.9878 -120.0892 132° Southeast 423 487 37,000  Level Oakland Center
Mon 10:11:59 AM 35.9092 -119.9811 132° Southeast 422 486 37,000  Level Oakland Center
Mon 10:13:00 AM 35.8300 -119.8728 132° Southeast 422 486 37,000  Level Oakland Center
Mon 10:14:00 AM 35.7481 -119.7647 133° Southeast 427 491 37,000  Level Oakland Center
Mon 10:15:01 AM 35.6694 -119.6564 132° Southeast 425 489 37,000  Level Oakland Center
Mon 10:16:02 AM 35.6058 -119.5322 122° Southeast 428 493 37,000  Level Oakland Center
Mon 10:17:03 AM 35.5550 -119.4000 115° Southeast 428 493 37,000  Level Oakland Center
Mon 10:18:04 AM 35.5031 -119.2669 116° Southeast 431 496 37,000  Level Oakland Center
Mon 10:19:05 AM 35.4500 -119.1356 116° Southeast 430 495 37,000  Level Oakland Center
Mon 10:20:06 AM 35.3978 -119.0033 116° Southeast 430 495 37,000  Level Oakland Center
Mon 10:21:07 AM 35.3464 -118.8711 115° Southeast 430 495 37,000  Level Oakland Center
Mon 10:22:08 AM 35.2817 -118.7133 117° Southeast 432 497 37,000  Level Oakland Center
Mon 10:23:09 AM 35.2294 -118.5831 116° Southeast 429 494 37,000  Level Oakland Center
Mon 10:24:10 AM 35.1778 -118.4533 116° Southeast 427 491 37,000  Level Oakland Center
Mon 10:25:11 AM 35.1256 -118.3225 116° Southeast 427 491 37,000  Level Oakland Center
Mon 10:26:37 AM 35.0508 -118.1431 117° Southeast 426 490 37,000  Level Los Angeles Center
Mon 10:27:39 AM 34.9975 -118.0144 117° Southeast 427 491 37,000  Level Los Angeles Center
Mon 10:28:41 AM 34.9433 -117.8878 118° Southeast 427 491 37,000  Level Los Angeles Center
Mon 10:29:42 AM 34.8806 -117.7336 116° Southeast 429 494 37,000  Level Los Angeles Center
Mon 10:30:44 AM 34.8283 -117.6069 117° Southeast 426 490 37,000  Level Los Angeles Center
Mon 10:31:46 AM 34.7750 -117.4794 117° Southeast 435 501 37,000  Level Los Angeles Center
Mon 10:32:47 AM 34.7222 -117.3531 117° Southeast 426 490 37,000  Level Los Angeles Center
Mon 10:33:49 AM 34.6675 -117.2242 117° Southeast 439 505 37,000  Level Los Angeles Center
Mon 10:34:51 AM 34.6153 -117.0981 117° Southeast 425 489 37,000  Level Los Angeles Center
Mon 10:35:53 AM 34.5497 -116.9425 117° Southeast 435 501 37,000  Level Los Angeles Center
Mon 10:36:55 AM 34.4958 -116.8150 117° Southeast 431 496 37,000  Level Los Angeles Center
Mon 10:37:56 AM 34.4425 -116.6886 117° Southeast 424 488 37,000  Level Los Angeles Center
Mon 10:38:58 AM 34.3869 -116.5600 118° Southeast 431 496 37,000  Level Los Angeles Center
Mon 10:40:00 AM 34.3336 -116.4306 116° Southeast 433 498 37,000  Level Los Angeles Center
Mon 10:41:02 AM 34.2775 -116.3036 118° Southeast 430 495 37,000  Level Los Angeles Center
Mon 10:42:03 AM 34.2225 -116.1736 117° Southeast 433 498 37,000  Level Los Angeles Center
Mon 10:43:05 AM 34.1550 -116.0194 118° Southeast 434 499 37,000  Level Los Angeles Center
Mon 10:44:07 AM 34.1036 -115.9033 118° Southeast 430 495 37,000  Level Los Angeles Center
Mon 10:45:08 AM 34.0464 -115.7725 118° Southeast 437 503 37,000  Level Los Angeles Center
Mon 10:46:10 AM 33.9778 -115.6192 118° Southeast 434 499 37,000  Level Los Angeles Center
Mon 10:47:12 AM 33.9214 -115.4919 118° Southeast 432 497 37,000  Level Los Angeles Center
Mon 10:48:13 AM 33.8653 -115.3639 118° Southeast 431 496 37,000  Level Los Angeles Center
Mon 10:49:15 AM 33.8078 -115.2367 119° Southeast 432 497 37,000  Level Los Angeles Center
Mon 10:50:17 AM 33.7511 -115.1094 118° Southeast 431 496 37,000  Level Los Angeles Center
Mon 10:51:19 AM 33.6942 -114.9808 118° Southeast 433 498 37,000  Level Los Angeles Center
Mon 10:52:20 AM 33.6381 -114.8511 117° Southeast 437 503 37,000 -195 Level Los Angeles Center
Mon 10:53:22 AM 33.6086 -114.7125 104° East 426 490 36,600 -1,742 Descending Los Angeles Center
Mon 10:54:24 AM 33.5683 -114.5447 106° East 433 498 33,400 -2,976 Descending Los Angeles Center
Mon 10:55:25 AM 33.5358 -114.4028 105° East 442 509 30,500 -2,634 Descending Los Angeles Center
Mon 10:56:27 AM 33.5033 -114.2606 105° East 445 512 28,000 -2,319 Descending Los Angeles Center
Mon 10:57:24 AM 33.4778 -114.1397 104° East 445 512 25,900 -1,563 Descending Albuquerque Center
Mon 10:58:26 AM 33.4489 -114.0033 104° East 430 495 24,900 -439 Descending Albuquerque Center
Mon 10:59:27 AM 33.4167 -113.8447 104° East 412 474 25,000 49 Climbing Albuquerque Center
Mon 11:00:29 AM 33.3900 -113.7142 104° East 407 468 25,000 -581 Level Albuquerque Center
Mon 11:01:31 AM 33.3631 -113.5831 104° East 406 467 23,800 -1,645 Descending Albuquerque Center
Mon 11:02:33 AM 33.3372 -113.4567 104° East 396 456 21,600 -2,098 Descending Albuquerque Center
Mon 11:03:34 AM 33.3122 -113.3358 104° East 381 438 19,500 -2,049 Descending Albuquerque Center
Mon 11:04:36 AM 33.2875 -113.2178 104° East 371 427 17,400 -1,984 Descending Albuquerque Center
Mon 11:05:38 AM 33.2733 -113.0994 98° East 364 419 15,400 -1,694 Descending Albuquerque Center
Mon 11:06:40 AM 33.2764 -112.9886 88° East 341 392 13,900 -1,756 Descending Albuquerque Center
Mon 11:07:41 AM 33.2789 -112.8578 89° East 331 381 11,800 -1,610 Descending Albuquerque Center
Mon 11:08:43 AM 33.3019 -112.7603 74° East 312 359 10,600 -919 Descending Albuquerque Center
Mon 11:09:45 AM 33.3342 -112.6747 66° East 290 334 9,900 -823 Descending Albuquerque Center
Mon 11:10:47 AM 33.3683 -112.5881 65° Northeast 275 316 8,900 -871 Descending Albuquerque Center
Mon 11:11:49 AM 33.3942 -112.5181 66° East 268 308 8,100 -919 Descending Albuquerque Center
Mon 11:12:51 AM 33.4281 -112.4244 67° East 257 296 7,000 -1,113 Descending Albuquerque Center
Mon 11:13:53 AM 33.4283 -112.3339 90° East 271 312 5,800 -1,161 Descending Albuquerque Center
Mon 11:14:55 AM 33.4289 -112.2486 90° East 261 300 4,600 -1,220 Descending Albuquerque Center
Mon 11:15:56 AM 33.4283 -112.1650 90° East 254 292 3,300 -1,073 Descending Albuquerque Center
Mon 11:16:58 AM 33.4306 -112.1011 88° East 198 228 2,400 -823 Descending Albuquerque Center
Mon 11:18:00 AM 33.4314 -112.0550 89° East 146 168 1,600 -677 Descending Albuquerque Center
Mon 11:19:02 AM 33.4289 -112.0086 94° East 133 153 1,000 -581 Descending Albuquerque Center

Login

Don't have an account? Register now (free) for customized features, flight alerts, and more!